Myojin Maru No.25 — JL6201 — position and weather

sailwx.info

Track history (hours):
 
Tides and Currents Weather Stations Pressure Air Temp Water Temp Dewpoint Dewpoint Depression Visibility Wind Speed Wind Dir Waves Ship Positions

Myojin Maru No.25

Last reported at 2016-Feb-11 08:33 UTC. Time now 2016-Feb-11 15:01 UTC.
Position N 35°02' E 139°34'.

Length 88 m; draft 5.9 m.

Type: Tanker. MMSI: 431500272.

Date/timePositionNaut miles runAvg speedWind from/ knotsBaromVisibWave heightAir tempDewpointWater temp
2016-Feb-11 08:33N 35°02' E 139°34'1313.1
2016-Feb-11 07:32N 35°11' E 139°45'1111.7
2016-Feb-11 06:33N 35°23' E 139°42'1212.3
2016-Feb-11 05:33N 35°30' E 139°54'6 6.5
2016-Feb-11 04:33N 35°30' E 140°02'0 0.0
2016-Feb-11 03:34N 35°30' E 140°02'0 0.0
2016-Feb-11 02:33N 35°30' E 140°02'0 0.2
2016-Feb-11 01:33N 35°30' E 140°02'3 3.1
2016-Feb-11 00:33N 35°31' E 139°58'0 0.0
2016-Feb-10 23:33N 35°31' E 139°58'0 0.0
2016-Feb-10 22:33N 35°31' E 139°58'0 0.0
2016-Feb-10 21:33N 35°31' E 139°58'0 0.0
2016-Feb-10 20:33N 35°31' E 139°58'0 0.0
2016-Feb-10 19:31N 35°31' E 139°59'0 0.0
2016-Feb-10 18:33N 35°31' E 139°59'0 0.0
2016-Feb-10 17:33N 35°31' E 139°59'0 0.0
2016-Feb-10 16:33N 35°31' E 139°59'0 0.0
2016-Feb-10 15:34N 35°31' E 139°59'0 0.0
2016-Feb-10 14:33N 35°31' E 139°59'1 1.2
2016-Feb-10 13:34N 35°31' E 139°57'1211.8
2016-Feb-10 12:34N 35°23' E 139°46'1110.9
2016-Feb-10 11:33N 35°12' E 139°47'18 1.0
2016-Feb-09 18:18N 35°00' E 139°31'1012.4
2016-Feb-09 17:29N 35°06' E 139°41'1111.5
2016-Feb-09 16:33N 35°16' E 139°45'1010.3
2016-Feb-09 15:34N 35°27' E 139°47'6 6.0
2016-Feb-09 14:34N 35°28' E 139°54'0 0.0
2016-Feb-09 13:34N 35°28' E 139°54'0 0.0
2016-Feb-09 12:34N 35°28' E 139°54'0 0.0
2016-Feb-09 11:34N 35°28' E 139°54'0 0.0
2016-Feb-09 10:33N 35°28' E 139°54'0 0.0
2016-Feb-09 09:33N 35°28' E 139°54'0 0.1
2016-Feb-09 08:33N 35°28' E 139°54'0 0.1
2016-Feb-09 07:33N 35°29' E 139°54'0 0.0
2016-Feb-09 06:33N 35°29' E 139°54'0 0.0
2016-Feb-09 05:33N 35°29' E 139°54'0 0.0
2016-Feb-09 04:34N 35°29' E 139°54'4 3.9
2016-Feb-09 03:34N 35°30' E 139°58'3 3.0
2016-Feb-09 02:33N 35°30' E 140°02'0 0.0
2016-Feb-09 01:33N 35°30' E 140°02'0 0.0
2016-Feb-09 00:33N 35°30' E 140°02'0 0.0
2016-Feb-08 23:33N 35°30' E 140°02'3 2.7
2016-Feb-08 22:33N 35°32' E 139°60'0 0.3
2016-Feb-08 21:33N 35°32' E 139°59'0 0.0
2016-Feb-08 20:33N 35°32' E 139°59'0 0.1
2016-Feb-08 19:33N 35°32' E 139°59'0 0.0
2016-Feb-08 18:33N 35°32' E 139°59'5 5.3
2016-Feb-08 17:33N 35°29' E 139°54'1312.9
2016-Feb-08 16:33N 35°19' E 139°44'1313.1
2016-Feb-08 15:33N 35°06' E 139°45'1311.9
2016-Feb-08 14:30N 34°53' E 139°48'1210.9
2016-Feb-08 13:21N 34°54' E 140°03'910.9
2016-Feb-08 12:33N 34°58' E 140°12'3611.8
2016-Feb-08 09:31N 35°24' E 140°43'1512.6
2016-Feb-08 08:19N 35°37' E 140°53'31 1.8
2016-Feb-07 15:27N 36°07' E 140°49'4210.9
2016-Feb-07 11:33N 35°25' E 140°44'51 8.5
2016-Feb-07 05:31N 35°08' E 139°45'1111.8
2016-Feb-07 04:33N 35°19' E 139°43'1110.9
2016-Feb-07 03:33N 35°28' E 139°50'1010.0
2016-Feb-07 02:33N 35°30' E 140°02'0 0.0
2016-Feb-07 01:33N 35°30' E 140°02'0 0.0
2016-Feb-07 00:33N 35°30' E 140°02'0 0.0
2016-Feb-06 23:33N 35°30' E 140°02'0 0.1
2016-Feb-06 22:33N 35°30' E 140°02'3 3.5
2016-Feb-06 21:33N 35°31' E 139°58'0 0.0
2016-Feb-06 20:25N 35°31' E 139°58'0 0.0
2016-Feb-06 19:25N 35°31' E 139°58'0 0.0
2016-Feb-06 18:31N 35°31' E 139°58'0 0.0
2016-Feb-06 17:28N 35°31' E 139°58'0 0.0
2016-Feb-06 16:31N 35°31' E 139°58'0 0.0
2016-Feb-06 15:31N 35°31' E 139°58'0 0.1
2016-Feb-06 14:31N 35°31' E 139°58'0 0.0
2016-Feb-06 13:25N 35°31' E 139°58'0 0.1
2016-Feb-06 12:31N 35°31' E 139°58'0 0.0
2016-Feb-06 11:31N 35°31' E 139°58'0 0.1
2016-Feb-06 10:31N 35°31' E 139°58'0 0.0
2016-Feb-06 09:25N 35°31' E 139°58'0 0.0
2016-Feb-06 08:16N 35°31' E 139°58'5 6.8
2016-Feb-06 07:33N 35°34' E 139°53'4 4.1
2016-Feb-06 06:33N 35°37' E 139°50'0 0.0
2016-Feb-06 05:33N 35°37' E 139°50'2 1.9
2016-Feb-06 04:33N 35°35' E 139°51'1 1.2
2016-Feb-06 03:29N 35°35' E 139°52'3 3.3
2016-Feb-06 02:32N 35°34' E 139°56'6 6.5
2016-Feb-06 01:33N 35°30' E 140°02'0 0.0
2016-Feb-06 00:33N 35°30' E 140°02'0 0.0
2016-Feb-05 23:34N 35°30' E 140°02'2 2.4
2016-Feb-05 22:33N 35°31' E 139°59'1 0.7
2016-Feb-05 21:33N 35°31' E 139°59'0 0.0
2016-Feb-05 20:33N 35°31' E 139°59'0 0.0
2016-Feb-05 19:33N 35°31' E 139°59'0 0.0
2016-Feb-05 18:33N 35°31' E 139°59'2 2.0
2016-Feb-05 17:33N 35°30' E 139°57'1312.8
2016-Feb-05 16:33N 35°22' E 139°45'1312.6
2016-Feb-05 15:33N 35°09' E 139°46'1312.8
2016-Feb-05 14:33N 34°56' E 139°44'1211.6
2016-Feb-05 13:33N 34°52' E 139°57'1212.3
2016-Feb-05 12:33N 34°58' E 140°10'3112.6
2016-Feb-05 10:04N 35°19' E 140°38'712.7
2016-Feb-05 09:33N 35°25' E 140°43'1612.9
2016-Feb-05 08:19N 35°38' E 140°53'13 0.6
2016-Feb-04 11:23N 35°27' E 140°46'3913.1
2016-Feb-04 08:25N 34°59' E 140°13'24 8.4
2016-Feb-04 05:32N 35°06' E 139°44'1212.4
2016-Feb-04 04:33N 35°18' E 139°44'1110.7
2016-Feb-04 03:33N 35°28' E 139°49'1110.8
2016-Feb-04 02:33N 35°30' E 140°02'0 0.0
2016-Feb-04 01:33N 35°30' E 140°02'0 0.0
2016-Feb-04 00:33N 35°30' E 140°02'0 0.0
2016-Feb-03 23:33N 35°30' E 140°02'1 0.5
2016-Feb-03 22:33N 35°30' E 140°01'3 2.7
2016-Feb-03 21:33N 35°32' E 139°59'0 0.0
2016-Feb-03 20:33N 35°32' E 139°59'0 0.0
2016-Feb-03 19:32N 35°32' E 139°59'0 0.0
2016-Feb-03 18:33N 35°32' E 139°59'0 0.0
2016-Feb-03 17:33N 35°32' E 139°59'0 0.0
2016-Feb-03 16:33N 35°32' E 139°59'0 0.0
2016-Feb-03 15:33N 35°32' E 139°59'0 0.0
2016-Feb-03 14:33N 35°32' E 139°59'0 0.0
2016-Feb-03 13:33N 35°32' E 139°59'0 0.0
2016-Feb-03 12:33N 35°32' E 139°59'0 0.0
2016-Feb-03 11:33N 35°32' E 139°59'7 6.5
2016-Feb-03 10:33N 35°29' E 139°52'1212.4
2016-Feb-03 09:33N 35°18' E 139°45'1312.8
2016-Feb-03 08:33N 35°05' E 139°44'11 0.5
2016-Feb-02 10:30N 35°01' E 139°32'1212.8
2016-Feb-02 09:32N 35°09' E 139°44'1111.8
2016-Feb-02 08:33N 35°20' E 139°42'1211.7
2016-Feb-02 07:33N 35°30' E 139°51'9 8.6
2016-Feb-02 06:33N 35°30' E 140°02'0 0.0
2016-Feb-02 05:33N 35°30' E 140°02'0 0.0
2016-Feb-02 04:33N 35°30' E 140°02'0 0.0
2016-Feb-02 03:33N 35°30' E 140°02'0 0.0
2016-Feb-02 02:33N 35°30' E 140°02'2 2.4
2016-Feb-02 01:33N 35°31' E 139°60'1 1.1
2016-Feb-02 00:33N 35°32' E 139°60'1 0.7
2016-Feb-01 23:33N 35°33' E 140°00'5 5.4
2016-Feb-01 22:33N 35°36' E 140°06'0 0.0
2016-Feb-01 21:33N 35°36' E 140°06'0 0.0
2016-Feb-01 20:33N 35°36' E 140°06'0 0.0
2016-Feb-01 19:32N 35°36' E 140°06'0 0.0
2016-Feb-01 18:33N 35°36' E 140°06'0 0.0
2016-Feb-01 17:33N 35°36' E 140°06'0 0.0
2016-Feb-01 16:33N 35°36' E 140°06'0 0.0
2016-Feb-01 15:33N 35°36' E 140°06'0 0.0
2016-Feb-01 14:33N 35°36' E 140°06'0 0.0
2016-Feb-01 13:33N 35°36' E 140°06'0 0.0
2016-Feb-01 12:32N 35°36' E 140°06'0 0.0
2016-Feb-01 11:33N 35°36' E 140°06'0 0.0
2016-Feb-01 10:33N 35°36' E 140°06'0 0.0
2016-Feb-01 09:33N 35°36' E 140°06'  
Track history (hours):
 
Tides and Currents Weather Stations Pressure Air Temp Water Temp Dewpoint Dewpoint Depression Visibility Wind Speed Wind Dir Waves Ship Positions

Myojin Maru No.25

Last reported at 2016-Feb-11 08:33 UTC. Time now 2016-Feb-11 15:01 UTC.
Position N 35°02' E 139°34'.

Length 88 m; draft 5.9 m.

Type: Tanker. MMSI: 431500272.

Date/timePositionNaut miles runAvg speedWind from/ knotsBaromVisibWave heightAir tempDewpointWater temp
2016-Feb-11 08:33N 35°02' E 139°34'1313.1
2016-Feb-11 07:32N 35°11' E 139°45'1111.7
2016-Feb-11 06:33N 35°23' E 139°42'1212.3
2016-Feb-11 05:33N 35°30' E 139°54'6 6.5
2016-Feb-11 04:33N 35°30' E 140°02'0 0.0
2016-Feb-11 03:34N 35°30' E 140°02'0 0.0
2016-Feb-11 02:33N 35°30' E 140°02'0 0.2
2016-Feb-11 01:33N 35°30' E 140°02'3 3.1
2016-Feb-11 00:33N 35°31' E 139°58'0 0.0
2016-Feb-10 23:33N 35°31' E 139°58'0 0.0
2016-Feb-10 22:33N 35°31' E 139°58'0 0.0
2016-Feb-10 21:33N 35°31' E 139°58'0 0.0
2016-Feb-10 20:33N 35°31' E 139°58'0 0.0
2016-Feb-10 19:31N 35°31' E 139°59'0 0.0
2016-Feb-10 18:33N 35°31' E 139°59'0 0.0
2016-Feb-10 17:33N 35°31' E 139°59'0 0.0
2016-Feb-10 16:33N 35°31' E 139°59'0 0.0
2016-Feb-10 15:34N 35°31' E 139°59'0 0.0
2016-Feb-10 14:33N 35°31' E 139°59'1 1.2
2016-Feb-10 13:34N 35°31' E 139°57'1211.8
2016-Feb-10 12:34N 35°23' E 139°46'1110.9
2016-Feb-10 11:33N 35°12' E 139°47'18 1.0
2016-Feb-09 18:18N 35°00' E 139°31'1012.4
2016-Feb-09 17:29N 35°06' E 139°41'1111.5
2016-Feb-09 16:33N 35°16' E 139°45'1010.3
2016-Feb-09 15:34N 35°27' E 139°47'6 6.0
2016-Feb-09 14:34N 35°28' E 139°54'0 0.0
2016-Feb-09 13:34N 35°28' E 139°54'0 0.0
2016-Feb-09 12:34N 35°28' E 139°54'0 0.0
2016-Feb-09 11:34N 35°28' E 139°54'0 0.0
2016-Feb-09 10:33N 35°28' E 139°54'0 0.0
2016-Feb-09 09:33N 35°28' E 139°54'0 0.1
2016-Feb-09 08:33N 35°28' E 139°54'0 0.1
2016-Feb-09 07:33N 35°29' E 139°54'0 0.0
2016-Feb-09 06:33N 35°29' E 139°54'0 0.0
2016-Feb-09 05:33N 35°29' E 139°54'0 0.0
2016-Feb-09 04:34N 35°29' E 139°54'4 3.9
2016-Feb-09 03:34N 35°30' E 139°58'3 3.0
2016-Feb-09 02:33N 35°30' E 140°02'0 0.0
2016-Feb-09 01:33N 35°30' E 140°02'0 0.0
2016-Feb-09 00:33N 35°30' E 140°02'0 0.0
2016-Feb-08 23:33N 35°30' E 140°02'3 2.7
2016-Feb-08 22:33N 35°32' E 139°60'0 0.3
2016-Feb-08 21:33N 35°32' E 139°59'0 0.0
2016-Feb-08 20:33N 35°32' E 139°59'0 0.1
2016-Feb-08 19:33N 35°32' E 139°59'0 0.0
2016-Feb-08 18:33N 35°32' E 139°59'5 5.3
2016-Feb-08 17:33N 35°29' E 139°54'1312.9
2016-Feb-08 16:33N 35°19' E 139°44'1313.1
2016-Feb-08 15:33N 35°06' E 139°45'1311.9
2016-Feb-08 14:30N 34°53' E 139°48'1210.9
2016-Feb-08 13:21N 34°54' E 140°03'910.9
2016-Feb-08 12:33N 34°58' E 140°12'3611.8
2016-Feb-08 09:31N 35°24' E 140°43'1512.6
2016-Feb-08 08:19N 35°37' E 140°53'31 1.8
2016-Feb-07 15:27N 36°07' E 140°49'4210.9
2016-Feb-07 11:33N 35°25' E 140°44'51 8.5
2016-Feb-07 05:31N 35°08' E 139°45'1111.8
2016-Feb-07 04:33N 35°19' E 139°43'1110.9
2016-Feb-07 03:33N 35°28' E 139°50'1010.0
2016-Feb-07 02:33N 35°30' E 140°02'0 0.0
2016-Feb-07 01:33N 35°30' E 140°02'0 0.0
2016-Feb-07 00:33N 35°30' E 140°02'0 0.0
2016-Feb-06 23:33N 35°30' E 140°02'0 0.1
2016-Feb-06 22:33N 35°30' E 140°02'3 3.5
2016-Feb-06 21:33N 35°31' E 139°58'0 0.0
2016-Feb-06 20:25N 35°31' E 139°58'0 0.0
2016-Feb-06 19:25N 35°31' E 139°58'0 0.0
2016-Feb-06 18:31N 35°31' E 139°58'0 0.0
2016-Feb-06 17:28N 35°31' E 139°58'0 0.0
2016-Feb-06 16:31N 35°31' E 139°58'0 0.0
2016-Feb-06 15:31N 35°31' E 139°58'0 0.1
2016-Feb-06 14:31N 35°31' E 139°58'0 0.0
2016-Feb-06 13:25N 35°31' E 139°58'0 0.1
2016-Feb-06 12:31N 35°31' E 139°58'0 0.0
2016-Feb-06 11:31N 35°31' E 139°58'0 0.1
2016-Feb-06 10:31N 35°31' E 139°58'0 0.0
2016-Feb-06 09:25N 35°31' E 139°58'0 0.0
2016-Feb-06 08:16N 35°31' E 139°58'5 6.8
2016-Feb-06 07:33N 35°34' E 139°53'4 4.1
2016-Feb-06 06:33N 35°37' E 139°50'0 0.0
2016-Feb-06 05:33N 35°37' E 139°50'2 1.9
2016-Feb-06 04:33N 35°35' E 139°51'1 1.2
2016-Feb-06 03:29N 35°35' E 139°52'3 3.3
2016-Feb-06 02:32N 35°34' E 139°56'6 6.5
2016-Feb-06 01:33N 35°30' E 140°02'0 0.0
2016-Feb-06 00:33N 35°30' E 140°02'0 0.0
2016-Feb-05 23:34N 35°30' E 140°02'2 2.4
2016-Feb-05 22:33N 35°31' E 139°59'1 0.7
2016-Feb-05 21:33N 35°31' E 139°59'0 0.0
2016-Feb-05 20:33N 35°31' E 139°59'0 0.0
2016-Feb-05 19:33N 35°31' E 139°59'0 0.0
2016-Feb-05 18:33N 35°31' E 139°59'2 2.0
2016-Feb-05 17:33N 35°30' E 139°57'1312.8
2016-Feb-05 16:33N 35°22' E 139°45'1312.6
2016-Feb-05 15:33N 35°09' E 139°46'1312.8
2016-Feb-05 14:33N 34°56' E 139°44'1211.6
2016-Feb-05 13:33N 34°52' E 139°57'1212.3
2016-Feb-05 12:33N 34°58' E 140°10'3112.6
2016-Feb-05 10:04N 35°19' E 140°38'712.7
2016-Feb-05 09:33N 35°25' E 140°43'1612.9
2016-Feb-05 08:19N 35°38' E 140°53'13 0.6
2016-Feb-04 11:23N 35°27' E 140°46'3913.1
2016-Feb-04 08:25N 34°59' E 140°13'24 8.4
2016-Feb-04 05:32N 35°06' E 139°44'1212.4
2016-Feb-04 04:33N 35°18' E 139°44'1110.7
2016-Feb-04 03:33N 35°28' E 139°49'1110.8
2016-Feb-04 02:33N 35°30' E 140°02'0 0.0
2016-Feb-04 01:33N 35°30' E 140°02'0 0.0
2016-Feb-04 00:33N 35°30' E 140°02'0 0.0
2016-Feb-03 23:33N 35°30' E 140°02'1 0.5
2016-Feb-03 22:33N 35°30' E 140°01'3 2.7
2016-Feb-03 21:33N 35°32' E 139°59'0 0.0
2016-Feb-03 20:33N 35°32' E 139°59'0 0.0
2016-Feb-03 19:32N 35°32' E 139°59'0 0.0
2016-Feb-03 18:33N 35°32' E 139°59'0 0.0
2016-Feb-03 17:33N 35°32' E 139°59'0 0.0
2016-Feb-03 16:33N 35°32' E 139°59'0 0.0
2016-Feb-03 15:33N 35°32' E 139°59'0 0.0
2016-Feb-03 14:33N 35°32' E 139°59'0 0.0
2016-Feb-03 13:33N 35°32' E 139°59'0 0.0
2016-Feb-03 12:33N 35°32' E 139°59'0 0.0
2016-Feb-03 11:33N 35°32' E 139°59'7 6.5
2016-Feb-03 10:33N 35°29' E 139°52'1212.4
2016-Feb-03 09:33N 35°18' E 139°45'1312.8
2016-Feb-03 08:33N 35°05' E 139°44'11 0.5
2016-Feb-02 10:30N 35°01' E 139°32'1212.8
2016-Feb-02 09:32N 35°09' E 139°44'1111.8
2016-Feb-02 08:33N 35°20' E 139°42'1211.7
2016-Feb-02 07:33N 35°30' E 139°51'9 8.6
2016-Feb-02 06:33N 35°30' E 140°02'0 0.0
2016-Feb-02 05:33N 35°30' E 140°02'0 0.0
2016-Feb-02 04:33N 35°30' E 140°02'0 0.0
2016-Feb-02 03:33N 35°30' E 140°02'0 0.0
2016-Feb-02 02:33N 35°30' E 140°02'2 2.4
2016-Feb-02 01:33N 35°31' E 139°60'1 1.1
2016-Feb-02 00:33N 35°32' E 139°60'1 0.7
2016-Feb-01 23:33N 35°33' E 140°00'5 5.4
2016-Feb-01 22:33N 35°36' E 140°06'0 0.0
2016-Feb-01 21:33N 35°36' E 140°06'0 0.0
2016-Feb-01 20:33N 35°36' E 140°06'0 0.0
2016-Feb-01 19:32N 35°36' E 140°06'0 0.0
2016-Feb-01 18:33N 35°36' E 140°06'0 0.0
2016-Feb-01 17:33N 35°36' E 140°06'0 0.0
2016-Feb-01 16:33N 35°36' E 140°06'0 0.0
2016-Feb-01 15:33N 35°36' E 140°06'0 0.0
2016-Feb-01 14:33N 35°36' E 140°06'0 0.0
2016-Feb-01 13:33N 35°36' E 140°06'0 0.0
2016-Feb-01 12:32N 35°36' E 140°06'0 0.0
2016-Feb-01 11:33N 35°36' E 140°06'0 0.0
2016-Feb-01 10:33N 35°36' E 140°06'0 0.0
2016-Feb-01 09:33N 35°36' E 140°06'  

Dump ship's entire track history